createdAt,value
2018-12-02T00:00:54.836Z,0
2018-12-02T00:01:53.868Z,0
2018-12-02T00:02:54.347Z,0
2018-12-02T00:03:54.332Z,0
2018-12-02T00:04:54.318Z,0
2018-12-02T00:05:54.297Z,0
2018-12-02T00:06:54.287Z,0
2018-12-02T00:07:54.261Z,0
2018-12-02T00:08:54.243Z,0
2018-12-02T00:09:53.981Z,0
2018-12-02T00:10:53.959Z,0
2018-12-02T00:11:54.195Z,0
2018-12-02T00:12:54.176Z,0
2018-12-02T00:13:53.951Z,0
2018-12-02T00:14:54.140Z,0
2018-12-02T00:15:54.130Z,0
2018-12-02T00:16:53.857Z,0
2018-12-02T00:17:54.089Z,0
2018-12-02T00:18:54.076Z,0
2018-12-02T00:19:54.058Z,0
2018-12-02T00:20:53.788Z,0
2018-12-02T00:21:54.027Z,0
2018-12-02T00:22:55.369Z,0
2018-12-02T00:23:53.986Z,0
2018-12-02T00:24:53.968Z,0
2018-12-02T00:25:53.953Z,0
2018-12-02T00:26:53.935Z,0
2018-12-02T00:27:53.920Z,0
2018-12-02T00:28:53.915Z,0
2018-12-02T00:29:53.884Z,0
2018-12-02T00:30:53.862Z,0
2018-12-02T00:31:53.846Z,0
2018-12-02T00:32:53.584Z,0
2018-12-02T00:33:53.562Z,0
2018-12-02T00:34:53.801Z,0
2018-12-02T00:35:53.779Z,0
2018-12-02T00:36:53.763Z,0
2018-12-02T00:37:53.753Z,0
2018-12-02T00:38:53.732Z,0
2018-12-02T00:39:53.714Z,0
2018-12-02T00:40:53.699Z,0
2018-12-02T00:41:53.675Z,0
2018-12-02T00:42:53.679Z,0
2018-12-02T00:43:53.643Z,0
2018-12-02T00:44:53.627Z,0
2018-12-02T00:45:53.615Z,0
2018-12-02T00:46:53.640Z,0
2018-12-02T00:47:53.327Z,0
2018-12-02T00:48:53.561Z,0
2018-12-02T00:49:53.540Z,0
2018-12-02T00:50:53.538Z,0
2018-12-02T00:51:53.517Z,0
2018-12-02T00:52:53.487Z,0
2018-12-02T00:53:53.233Z,0
2018-12-02T00:54:53.210Z,0
2018-12-02T00:55:53.436Z,0
2018-12-02T00:56:53.180Z,0
2018-12-02T00:57:53.405Z,0
2018-12-02T00:58:53.386Z,0
2018-12-02T00:59:53.370Z,0
2018-12-02T01:00:53.105Z,0
2018-12-02T01:01:53.339Z,0
2018-12-02T01:02:53.318Z,0
2018-12-02T01:03:53.054Z,0
2018-12-02T01:04:53.290Z,0
2018-12-02T01:05:53.269Z,0
2018-12-02T01:06:58.354Z,0
2018-12-02T01:07:53.239Z,0
2018-12-02T01:08:53.235Z,0
2018-12-02T01:09:53.200Z,0
2018-12-02T01:10:53.186Z,0
2018-12-02T01:11:52.923Z,0
2018-12-02T01:12:53.204Z,0
2018-12-02T01:13:53.139Z,0
2018-12-02T01:14:53.121Z,0
2018-12-02T01:15:52.852Z,0
2018-12-02T01:16:52.836Z,0
2018-12-02T01:17:53.087Z,0
2018-12-02T01:18:52.799Z,0
2018-12-02T01:19:53.031Z,0
2018-12-02T01:20:53.013Z,0
2018-12-02T01:21:52.994Z,0
2018-12-02T01:22:52.982Z,0
2018-12-02T01:23:52.719Z,0
2018-12-02T01:24:52.952Z,0
2018-12-02T01:25:52.931Z,0
2018-12-02T01:26:53.757Z,0
2018-12-02T01:27:52.652Z,0
2018-12-02T01:28:52.886Z,0
2018-12-02T01:29:52.867Z,0
2018-12-02T01:30:52.849Z,0
2018-12-02T01:31:52.581Z,0
2018-12-02T01:32:52.813Z,0
2018-12-02T01:33:52.547Z,0
2018-12-02T01:34:52.543Z,0
2018-12-02T01:35:52.521Z,0
2018-12-02T01:36:52.748Z,0
2018-12-02T01:37:52.486Z,0
2018-12-02T01:38:52.712Z,0
2018-12-02T01:39:52.450Z,0
2018-12-02T01:40:52.698Z,0
2018-12-02T01:41:52.666Z,0
2018-12-02T01:42:52.661Z,0
2018-12-02T01:43:52.631Z,0
2018-12-02T01:44:52.609Z,0
2018-12-02T01:45:52.596Z,0
2018-12-02T01:46:52.579Z,0
2018-12-02T01:47:52.075Z,0
2018-12-02T01:48:52.545Z,0
2018-12-02T01:49:52.525Z,0
2018-12-02T01:50:52.272Z,0
2018-12-02T01:51:52.491Z,0
2018-12-02T01:52:52.483Z,0
2018-12-02T01:53:52.463Z,0
2018-12-02T01:54:52.443Z,0
2018-12-02T01:55:52.187Z,0
2018-12-02T01:56:52.413Z,0
2018-12-02T01:57:52.400Z,0
2018-12-02T01:58:52.398Z,0
2018-12-02T01:59:52.116Z,0
2018-12-02T02:00:52.344Z,0
2018-12-02T02:01:52.084Z,0
2018-12-02T02:02:52.075Z,0
2018-12-02T02:03:52.301Z,0
2018-12-02T02:04:52.288Z,0
2018-12-02T02:05:52.269Z,0
2018-12-02T02:06:52.266Z,0
2018-12-02T02:07:52.256Z,0
2018-12-02T02:08:51.717Z,0
2018-12-02T02:09:51.956Z,0
2018-12-02T02:10:51.931Z,0
2018-12-02T02:11:51.916Z,0
2018-12-02T02:12:52.149Z,0
2018-12-02T02:13:52.132Z,0
2018-12-02T02:14:51.876Z,0
2018-12-02T02:15:52.103Z,0
2018-12-02T02:16:52.144Z,0
2018-12-02T02:17:52.076Z,0
2018-12-02T02:18:52.064Z,0
2018-12-02T02:19:52.036Z,0
2018-12-02T02:20:52.020Z,0
2018-12-02T02:21:51.750Z,0
2018-12-02T02:22:51.982Z,0
2018-12-02T02:23:52.236Z,0
2018-12-02T02:24:51.698Z,0
2018-12-02T02:25:51.936Z,0
2018-12-02T02:30:39.442Z,0
2018-12-02T02:30:55.458Z,0
2018-12-02T02:31:55.449Z,0
2018-12-02T02:32:55.453Z,0
2018-12-02T02:33:55.409Z,0
2018-12-02T02:34:55.400Z,0
2018-12-02T02:35:55.379Z,0
2018-12-02T02:36:55.364Z,0
2018-12-02T02:37:54.861Z,0
2018-12-02T02:38:55.324Z,0
2018-12-02T02:39:55.314Z,0
2018-12-02T02:40:54.793Z,0
2018-12-02T02:41:55.278Z,0
2018-12-02T02:42:55.260Z,0
2018-12-02T02:43:55.248Z,0
2018-12-02T02:44:55.242Z,0
2018-12-02T02:45:55.205Z,0
2018-12-02T02:46:55.191Z,0
2018-12-02T02:47:55.185Z,0
2018-12-02T02:48:55.158Z,0
2018-12-02T02:49:55.146Z,0
2018-12-02T02:50:55.123Z,0
2018-12-02T02:51:55.120Z,0
2018-12-02T02:52:55.088Z,0
2018-12-02T02:53:54.573Z,0
2018-12-02T02:54:55.064Z,0
2018-12-02T02:55:55.044Z,0
2018-12-02T02:56:55.031Z,0
2018-12-02T02:57:54.508Z,0
2018-12-02T02:58:54.748Z,0
2018-12-02T02:59:54.975Z,0
2018-12-02T03:00:54.477Z,0
2018-12-02T03:01:54.943Z,0
2018-12-02T03:02:54.922Z,0
2018-12-02T03:03:54.659Z,0
2018-12-02T03:04:54.898Z,0
2018-12-02T03:05:54.628Z,0
2018-12-02T03:06:54.906Z,0
2018-12-02T03:07:54.593Z,0
2018-12-02T03:08:54.823Z,0
2018-12-02T03:09:54.808Z,0
2018-12-02T03:10:54.540Z,0
2018-12-02T03:11:54.771Z,0
2018-12-02T03:12:54.769Z,0
2018-12-02T03:13:54.741Z,0
2018-12-02T03:14:54.728Z,0
2018-12-02T03:15:54.702Z,0
2018-12-02T03:16:54.452Z,0
2018-12-02T03:17:54.684Z,0
2018-12-02T03:18:54.664Z,0
2018-12-02T03:19:54.688Z,0
2018-12-02T03:20:54.623Z,0
2018-12-02T03:21:54.614Z,0
2018-12-02T03:22:54.606Z,0
2018-12-02T03:23:54.575Z,0
2018-12-02T03:24:54.622Z,0
2018-12-02T03:25:54.546Z,0
2018-12-02T03:26:54.525Z,0
2018-12-02T03:27:54.282Z,0
2018-12-02T03:28:54.493Z,0
2018-12-02T03:29:54.229Z,0
2018-12-02T03:30:54.470Z,0
2018-12-02T03:31:54.243Z,0
2018-12-02T03:32:54.483Z,0
2018-12-02T03:33:54.445Z,0
2018-12-02T03:34:54.407Z,0
2018-12-02T03:35:54.378Z,0
2018-12-02T03:36:54.358Z,0
2018-12-02T03:37:54.120Z,0
2018-12-02T03:38:54.329Z,0
2018-12-02T03:39:54.315Z,0
2018-12-02T03:40:54.048Z,0
2018-12-02T03:41:54.273Z,0
2018-12-02T03:42:54.275Z,0
2018-12-02T03:43:54.248Z,0
2018-12-02T03:44:54.243Z,0
2018-12-02T03:45:54.222Z,0
2018-12-02T03:46:54.198Z,0
2018-12-02T03:47:53.937Z,0
2018-12-02T03:48:54.171Z,0
2018-12-02T03:49:54.163Z,0
2018-12-02T03:50:53.887Z,0
2018-12-02T03:51:53.880Z,0
2018-12-02T03:52:53.602Z,0
2018-12-02T03:53:53.851Z,0
2018-12-02T03:54:54.079Z,0
2018-12-02T03:55:54.096Z,0
2018-12-02T03:56:54.035Z,0
2018-12-02T03:57:54.022Z,0
2018-12-02T03:58:53.998Z,0
2018-12-02T03:59:53.990Z,0
2018-12-02T04:00:53.967Z,0
2018-12-02T04:01:53.706Z,0
2018-12-02T04:02:53.684Z,0
2018-12-02T04:03:53.914Z,0
2018-12-02T04:04:53.901Z,0
2018-12-02T04:05:53.891Z,0
2018-12-02T04:06:53.869Z,0
2018-12-02T04:07:53.873Z,0
2018-12-02T04:08:53.593Z,0
2018-12-02T04:09:53.825Z,0
2018-12-02T04:10:53.794Z,0
2018-12-02T04:11:53.541Z,0
2018-12-02T04:12:53.308Z,0
2018-12-02T04:13:53.763Z,0
2018-12-02T04:14:53.483Z,0
2018-12-02T04:15:53.480Z,0
2018-12-02T04:16:53.457Z,0
2018-12-02T04:17:53.702Z,0
2018-12-02T04:18:53.676Z,0
2018-12-02T04:19:53.667Z,0
2018-12-02T04:20:53.407Z,0
2018-12-02T04:21:54.543Z,0
2018-12-02T04:22:53.676Z,0
2018-12-02T04:23:53.591Z,0
2018-12-02T04:24:53.577Z,0
2018-12-02T04:25:53.557Z,0
2018-12-02T04:26:53.298Z,0
2018-12-02T04:27:53.528Z,0
2018-12-02T04:28:53.276Z,0
2018-12-02T04:29:53.487Z,0
2018-12-02T04:30:53.486Z,0
2018-12-02T04:31:53.468Z,0
2018-12-02T04:32:53.480Z,0
2018-12-02T04:33:52.938Z,0
2018-12-02T04:34:53.423Z,0
2018-12-02T04:35:53.155Z,0
2018-12-02T04:36:53.133Z,0
2018-12-02T04:37:53.370Z,0
2018-12-02T04:38:53.353Z,0
2018-12-02T04:39:53.334Z,0
2018-12-02T04:40:53.328Z,0
2018-12-02T04:41:53.056Z,0
2018-12-02T04:42:53.291Z,0
2018-12-02T04:43:53.033Z,0
2018-12-02T04:44:53.258Z,0
2018-12-02T04:45:53.240Z,0
2018-12-02T04:46:53.223Z,0
2018-12-02T04:47:53.218Z,0
2018-12-02T04:48:53.195Z,0
2018-12-02T04:49:52.929Z,0
2018-12-02T04:50:53.156Z,0
2018-12-02T04:51:53.145Z,0
2018-12-02T04:52:53.141Z,0
2018-12-02T04:53:53.110Z,0
2018-12-02T04:54:53.093Z,0
2018-12-02T04:55:52.825Z,0
2018-12-02T04:56:53.071Z,0
2018-12-02T04:57:52.569Z,0
2018-12-02T04:58:53.041Z,0
2018-12-02T04:59:54.508Z,0
2018-12-02T05:00:52.998Z,0
2018-12-02T05:01:52.487Z,0
2018-12-02T05:02:52.961Z,0
2018-12-02T05:03:52.957Z,0
2018-12-02T05:04:52.984Z,0
2018-12-02T05:05:52.920Z,0
2018-12-02T05:06:52.903Z,0
2018-12-02T05:07:52.901Z,0
2018-12-02T05:08:52.887Z,0
2018-12-02T05:09:52.852Z,0
2018-12-02T05:10:52.598Z,0
2018-12-02T05:11:52.832Z,0
2018-12-02T05:12:52.809Z,0
2018-12-02T05:13:52.794Z,0
2018-12-02T05:14:52.781Z,0
2018-12-02T05:15:52.760Z,0
2018-12-02T05:16:52.750Z,0
2018-12-02T05:17:52.786Z,0
2018-12-02T05:18:52.709Z,0
2018-12-02T05:19:52.436Z,0
2018-12-02T05:20:52.680Z,0
2018-12-02T05:21:52.662Z,0
2018-12-02T05:22:52.639Z,0
2018-12-02T05:23:52.623Z,0
2018-12-02T05:24:52.614Z,0
2018-12-02T05:25:52.587Z,0
2018-12-02T05:26:52.330Z,0
2018-12-02T05:27:52.345Z,0
2018-12-02T05:28:52.549Z,0
2018-12-02T05:29:52.293Z,0
2018-12-02T05:30:52.291Z,0
2018-12-02T05:31:52.493Z,0
2018-12-02T05:32:52.490Z,0
2018-12-02T05:33:52.464Z,0
2018-12-02T05:34:52.450Z,0
2018-12-02T05:35:52.438Z,0
2018-12-02T05:36:52.411Z,0
2018-12-02T05:37:52.397Z,0
2018-12-02T05:38:52.380Z,0
2018-12-02T05:39:52.362Z,0
2018-12-02T05:40:52.103Z,0
2018-12-02T05:41:52.329Z,0
2018-12-02T05:42:52.315Z,0
2018-12-02T05:43:52.306Z,0
2018-12-02T05:44:52.276Z,0
2018-12-02T05:45:52.269Z,0
2018-12-02T05:46:52.003Z,0
2018-12-02T05:47:51.980Z,0
2018-12-02T05:48:52.225Z,0
2018-12-02T05:49:52.202Z,0
2018-12-02T05:50:52.182Z,0
2018-12-02T05:51:52.171Z,0
2018-12-02T05:52:52.194Z,0
2018-12-02T05:53:52.135Z,0
2018-12-02T05:54:52.118Z,0
2018-12-02T05:55:52.106Z,0
2018-12-02T05:56:51.838Z,0
2018-12-02T05:57:51.824Z,0
2018-12-02T05:58:52.056Z,0
2018-12-02T05:59:52.049Z,0
2018-12-02T06:00:52.020Z,0
2018-12-02T06:01:52.016Z,0
2018-12-02T06:02:51.994Z,0
2018-12-02T06:03:51.728Z,0
2018-12-02T06:04:51.963Z,0
2018-12-02T06:05:51.945Z,0
2018-12-02T06:06:51.683Z,0
2018-12-02T06:07:51.669Z,0
2018-12-02T06:08:51.898Z,0
2018-12-02T06:09:51.880Z,0
2018-12-02T06:10:51.371Z,0
2018-12-02T06:11:51.850Z,0
2018-12-02T06:12:51.583Z,0
2018-12-02T06:13:51.576Z,0
2018-12-02T06:14:51.802Z,0
2018-12-02T06:15:51.791Z,4
2018-12-02T06:16:51.772Z,0
2018-12-02T06:17:51.499Z,0
2018-12-02T06:18:51.733Z,4
2018-12-02T06:19:51.469Z,4
2018-12-02T06:20:51.708Z,0
2018-12-02T06:21:51.690Z,4
2018-12-02T06:22:51.435Z,4
2018-12-02T06:23:51.651Z,8
2018-12-02T06:24:51.642Z,4
2018-12-02T06:25:53.482Z,8
2018-12-02T06:26:51.605Z,8
2018-12-02T06:27:51.624Z,8
2018-12-02T06:28:51.580Z,8
2018-12-02T06:29:51.364Z,16
2018-12-02T06:30:51.301Z,16
2018-12-02T06:31:51.278Z,16
2018-12-02T06:32:51.266Z,20
2018-12-02T06:33:50.996Z,24
2018-12-02T06:34:51.473Z,28
2018-12-02T06:35:51.212Z,28
2018-12-02T06:36:51.449Z,32
2018-12-02T06:37:51.441Z,36
2018-12-02T06:38:51.411Z,36
2018-12-02T06:39:51.391Z,48
2018-12-02T06:40:51.386Z,60
2018-12-02T06:41:51.374Z,72
2018-12-02T06:42:51.345Z,84
2018-12-02T06:43:51.333Z,92
2018-12-02T06:44:51.323Z,104
2018-12-02T06:45:51.297Z,116
2018-12-02T06:46:51.287Z,120
2018-12-02T06:47:51.324Z,124
2018-12-02T06:48:51.248Z,128
2018-12-02T06:49:50.988Z,128
2018-12-02T06:50:51.233Z,124
2018-12-02T06:51:51.205Z,128
2018-12-02T06:52:51.191Z,132
2018-12-02T06:53:50.929Z,136
2018-12-02T06:54:51.160Z,144
2018-12-02T06:55:51.143Z,148
2018-12-02T06:56:50.876Z,148
2018-12-02T06:57:50.858Z,156
2018-12-02T06:58:51.097Z,164
2018-12-02T06:59:51.085Z,172
2018-12-02T07:00:51.060Z,180
2018-12-02T07:01:51.741Z,192
2018-12-02T07:02:51.036Z,208
2018-12-02T07:03:51.012Z,212
2018-12-02T07:04:51.001Z,228
2018-12-02T07:05:50.735Z,244
2018-12-02T07:06:50.960Z,252
2018-12-02T07:07:50.949Z,276
2018-12-02T07:08:50.440Z,284
2018-12-02T07:09:50.926Z,272
2018-12-02T07:10:50.900Z,260
2018-12-02T07:11:50.438Z,264
2018-12-02T07:12:50.631Z,228
2018-12-02T07:13:50.857Z,232
2018-12-02T07:14:50.341Z,276
2018-12-02T07:15:50.828Z,300
2018-12-02T07:16:50.805Z,292
2018-12-02T07:17:50.544Z,300
2018-12-02T07:18:50.526Z,328
2018-12-02T07:19:50.759Z,392
2018-12-02T07:20:50.747Z,420
2018-12-02T07:21:50.727Z,432
2018-12-02T07:22:50.707Z,432
2018-12-02T07:23:50.694Z,392
2018-12-02T07:24:50.678Z,388
2018-12-02T07:25:50.666Z,456
2018-12-02T07:26:50.649Z,484
2018-12-02T07:27:50.637Z,492
2018-12-02T07:28:50.622Z,500
2018-12-02T07:29:50.107Z,508
2018-12-02T07:30:50.337Z,520
2018-12-02T07:31:50.569Z,528
2018-12-02T07:32:50.308Z,532
2018-12-02T07:33:50.543Z,536
2018-12-02T07:34:50.272Z,548
2018-12-02T07:35:50.502Z,568
2018-12-02T07:36:50.489Z,580
2018-12-02T07:37:49.982Z,588
2018-12-02T07:38:50.462Z,592
2018-12-02T07:39:50.438Z,588
2018-12-02T07:40:50.431Z,580
2018-12-02T07:41:50.410Z,584
2018-12-02T07:42:50.146Z,580
2018-12-02T07:43:50.381Z,596
2018-12-02T07:44:50.113Z,620
2018-12-02T07:45:50.348Z,660
2018-12-02T07:46:50.079Z,708
2018-12-02T07:47:50.308Z,748
2018-12-02T07:48:50.304Z,788
2018-12-02T07:49:50.288Z,844
2018-12-02T07:50:50.264Z,908
2018-12-02T07:51:50.254Z,968
2018-12-02T07:52:50.233Z,1028
2018-12-02T07:53:49.973Z,1060
2018-12-02T07:54:50.197Z,1120
2018-12-02T07:55:49.931Z,1188
2018-12-02T07:56:50.178Z,1252
2018-12-02T07:57:49.908Z,1244
2018-12-02T07:58:50.142Z,1196
2018-12-02T07:59:50.126Z,1208
2018-12-02T08:00:50.099Z,1260
2018-12-02T08:01:50.089Z,1328
2018-12-02T08:02:49.569Z,1308
2018-12-02T08:03:50.062Z,1356
2018-12-02T08:04:50.040Z,1264
2018-12-02T08:05:50.026Z,1404
2018-12-02T08:06:50.010Z,1428
2018-12-02T08:07:49.990Z,1348
2018-12-02T08:08:49.975Z,1568
2018-12-02T08:09:49.962Z,1592
2018-12-02T08:10:49.960Z,1612
2018-12-02T08:11:49.933Z,1676
2018-12-02T08:12:49.665Z,1684
2018-12-02T08:13:49.894Z,1780
2018-12-02T08:14:49.631Z,1808
2018-12-02T08:15:49.868Z,1836
2018-12-02T08:16:49.847Z,1828
2018-12-02T08:17:49.581Z,1804
2018-12-02T08:18:49.574Z,1784
2018-12-02T08:19:49.803Z,1764
2018-12-02T08:20:49.782Z,1732
2018-12-02T08:21:49.773Z,1692
2018-12-02T08:22:53.935Z,1620
2018-12-02T08:23:49.738Z,1512
2018-12-02T08:24:49.728Z,1416
2018-12-02T08:25:49.718Z,1372
2018-12-02T08:26:49.737Z,1348
2018-12-02T08:27:49.679Z,1368
2018-12-02T08:28:49.415Z,1404
2018-12-02T08:29:49.644Z,1468
2018-12-02T08:30:49.383Z,1588
2018-12-02T08:31:49.613Z,1720
2018-12-02T08:32:49.595Z,1824
2018-12-02T08:33:49.591Z,1876
2018-12-02T08:34:49.319Z,1952
2018-12-02T08:35:49.302Z,2060
2018-12-02T08:36:49.538Z,2096
2018-12-02T08:37:49.520Z,2112
2018-12-02T08:38:49.515Z,2056
2018-12-02T08:39:49.486Z,1928
2018-12-02T08:40:49.476Z,1800
2018-12-02T08:41:49.460Z,1696
2018-12-02T08:42:49.449Z,1568
2018-12-02T08:43:49.436Z,1388
2018-12-02T08:44:49.161Z,1348
2018-12-02T08:45:49.147Z,1320
2018-12-02T08:46:49.139Z,1316
2018-12-02T08:47:49.117Z,1296
2018-12-02T08:48:49.350Z,1256
2018-12-02T08:49:49.088Z,1220
2018-12-02T08:50:49.322Z,1116
2018-12-02T08:51:49.315Z,1172
2018-12-02T08:52:49.044Z,1120
2018-12-02T08:53:49.285Z,1108
2018-12-02T08:54:49.252Z,956
2018-12-02T08:55:49.246Z,1008
2018-12-02T08:56:48.979Z,1068
2018-12-02T08:57:49.226Z,1124
2018-12-02T08:58:49.197Z,1080
2018-12-02T08:59:49.185Z,848
2018-12-02T09:00:48.926Z,940
2018-12-02T09:01:49.161Z,908
2018-12-02T09:02:48.646Z,860
2018-12-02T09:03:49.274Z,828
2018-12-02T09:04:49.106Z,820
2018-12-02T09:05:49.095Z,852
2018-12-02T09:06:49.071Z,888
2018-12-02T09:07:49.062Z,912
2018-12-02T09:08:49.041Z,904
2018-12-02T09:09:49.020Z,872
2018-12-02T09:10:51.067Z,872
2018-12-02T09:11:49.024Z,904
2018-12-02T09:12:48.977Z,900
2018-12-02T09:13:48.965Z,896
2018-12-02T09:14:48.969Z,832
2018-12-02T09:15:48.937Z,760
2018-12-02T09:16:48.941Z,744
2018-12-02T09:17:48.905Z,752
2018-12-02T09:18:48.647Z,768
2018-12-02T09:19:48.873Z,784
2018-12-02T09:20:48.870Z,792
2018-12-02T09:21:48.852Z,796
2018-12-02T09:22:48.828Z,788
2018-12-02T09:23:54.634Z,788
2018-12-02T09:24:48.794Z,788
2018-12-02T09:25:48.794Z,784
2018-12-02T09:26:48.763Z,776
2018-12-02T09:27:48.752Z,768
2018-12-02T09:28:48.750Z,764
2018-12-02T09:29:48.717Z,760
2018-12-02T09:30:48.704Z,768
2018-12-02T09:31:48.694Z,772
2018-12-02T09:32:48.682Z,776
2018-12-02T09:33:48.659Z,772
2018-12-02T09:34:48.396Z,768
2018-12-02T09:35:48.627Z,760
2018-12-02T09:36:48.672Z,760
2018-12-02T09:37:48.595Z,764
2018-12-02T09:38:48.575Z,768
2018-12-02T09:39:48.565Z,768
2018-12-02T09:40:48.297Z,772
2018-12-02T09:41:48.532Z,764
2018-12-02T09:42:48.522Z,760
2018-12-02T09:43:48.501Z,752
2018-12-02T09:44:48.254Z,756
2018-12-02T09:45:48.469Z,764
2018-12-02T09:46:48.456Z,764
2018-12-02T09:47:48.456Z,768
2018-12-02T09:48:48.436Z,776
2018-12-02T09:49:48.412Z,784
2018-12-02T09:50:48.393Z,788
2018-12-02T09:51:48.143Z,788
2018-12-02T09:52:48.361Z,780
2018-12-02T09:53:48.348Z,764
2018-12-02T09:54:48.082Z,744
2018-12-02T09:55:48.317Z,736
2018-12-02T09:56:48.309Z,740
2018-12-02T09:57:48.305Z,748
2018-12-02T09:58:48.269Z,744
2018-12-02T09:59:47.765Z,752
2018-12-02T10:00:48.232Z,796
2018-12-02T10:01:48.224Z,864
2018-12-02T10:02:47.958Z,972
2018-12-02T10:03:48.196Z,1128
2018-12-02T10:04:47.940Z,1308
2018-12-02T10:05:48.158Z,1536
2018-12-02T10:06:48.142Z,1768
2018-12-02T10:07:48.128Z,1956
2018-12-02T10:08:47.869Z,2088
2018-12-02T10:09:48.093Z,2192
2018-12-02T10:10:47.831Z,2300
2018-12-02T10:11:48.107Z,2396
2018-12-02T10:12:47.800Z,2524
2018-12-02T10:13:47.532Z,2652
2018-12-02T10:14:48.015Z,2788
2018-12-02T10:15:48.003Z,2904
2018-12-02T10:16:47.740Z,3004
2018-12-02T10:17:47.721Z,3084
2018-12-02T10:18:47.954Z,3096
2018-12-02T10:19:47.691Z,3004
2018-12-02T10:20:47.676Z,3088
2018-12-02T10:21:47.906Z,3120
2018-12-02T10:22:47.903Z,3168
2018-12-02T10:23:47.871Z,3240
2018-12-02T10:24:47.861Z,3380
2018-12-02T10:25:47.592Z,3528
2018-12-02T10:26:47.575Z,3612
2018-12-02T10:27:47.817Z,3636
2018-12-02T10:28:47.792Z,3720
2018-12-02T10:29:47.788Z,3780
2018-12-02T10:30:47.776Z,3808
2018-12-02T10:31:47.757Z,3784
2018-12-02T10:32:47.734Z,3728
2018-12-02T10:33:47.719Z,3616
2018-12-02T10:34:47.457Z,3592
2018-12-02T10:35:47.688Z,3636
2018-12-02T10:36:47.673Z,3688
2018-12-02T10:37:47.661Z,3712
2018-12-02T10:38:47.647Z,3660
2018-12-02T10:39:47.634Z,3644
2018-12-02T10:40:47.617Z,3752
2018-12-02T10:41:47.609Z,3860
2018-12-02T10:42:47.584Z,3936
2018-12-02T10:43:47.572Z,3972
2018-12-02T10:44:47.570Z,3892
2018-12-02T10:45:47.546Z,3752
2018-12-02T10:46:51.124Z,3580
2018-12-02T10:47:47.512Z,3400
2018-12-02T10:48:47.501Z,3156
2018-12-02T10:49:47.482Z,2976
2018-12-02T10:50:47.222Z,2656
2018-12-02T10:51:47.203Z,2772
2018-12-02T10:52:47.187Z,2660
2018-12-02T10:53:47.420Z,2560
2018-12-02T10:54:47.152Z,2564
2018-12-02T10:55:47.145Z,2592
2018-12-02T10:56:47.122Z,2608
2018-12-02T10:57:47.110Z,2592
2018-12-02T10:58:47.344Z,2600
2018-12-02T10:59:47.077Z,2656
2018-12-02T11:00:47.320Z,2656
2018-12-02T11:01:47.361Z,2616
2018-12-02T11:02:47.287Z,2564
2018-12-02T11:03:47.267Z,2552
2018-12-02T11:04:47.008Z,2648
2018-12-02T11:05:46.995Z,2748
2018-12-02T11:06:47.234Z,2820
2018-12-02T11:07:46.965Z,2880
2018-12-02T11:08:47.198Z,2848
2018-12-02T11:09:47.195Z,2728
2018-12-02T11:10:46.932Z,2572
2018-12-02T11:11:47.495Z,2436
2018-12-02T11:12:47.141Z,2376
2018-12-02T11:13:46.883Z,2328
2018-12-02T11:14:47.112Z,2296
2018-12-02T11:15:47.091Z,2276
2018-12-02T11:16:47.075Z,2192
2018-12-02T11:17:47.065Z,2444
2018-12-02T11:18:47.047Z,2408
2018-12-02T11:19:46.781Z,2420
2018-12-02T11:20:46.777Z,2564
2018-12-02T11:21:46.996Z,2668
2018-12-02T11:22:46.988Z,2688
2018-12-02T11:23:46.730Z,2580
2018-12-02T11:24:46.712Z,2348
2018-12-02T11:25:46.694Z,2596
2018-12-02T11:26:46.922Z,2784
2018-12-02T11:27:46.912Z,2556
2018-12-02T11:28:46.907Z,2740
2018-12-02T11:29:47.647Z,2856
2018-12-02T11:30:46.911Z,2868
2018-12-02T11:31:46.852Z,2788
2018-12-02T11:32:46.885Z,2748
2018-12-02T11:33:46.836Z,2808
2018-12-02T11:34:46.814Z,2768
2018-12-02T11:35:47.568Z,2828
2018-12-02T11:36:46.778Z,2792
2018-12-02T11:37:46.519Z,2688
2018-12-02T11:38:46.748Z,2744
2018-12-02T11:39:46.739Z,2684
2018-12-02T11:40:46.717Z,2768
2018-12-02T11:41:46.704Z,2864
2018-12-02T11:42:46.684Z,2916
2018-12-02T11:43:46.683Z,2888
2018-12-02T11:44:46.665Z,2912
2018-12-02T11:45:46.650Z,2928
2018-12-02T11:46:46.632Z,2748
2018-12-02T11:47:46.623Z,2880
2018-12-02T11:48:46.603Z,3072
2018-12-02T11:49:46.591Z,3000
2018-12-02T11:50:46.574Z,3380
2018-12-02T11:51:46.328Z,3520
2018-12-02T11:52:46.565Z,4036
2018-12-02T11:53:46.527Z,4512
2018-12-02T11:54:46.265Z,4480
2018-12-02T11:55:46.499Z,4896
2018-12-02T11:56:46.485Z,5388
2018-12-02T11:57:46.479Z,5844
2018-12-02T11:58:46.206Z,5916
2018-12-02T11:59:46.443Z,5544
2018-12-02T12:00:46.427Z,5888
2018-12-02T12:01:46.429Z,5760
2018-12-02T12:02:46.398Z,5572
2018-12-02T12:03:46.441Z,5548
2018-12-02T12:04:46.376Z,5152
2018-12-02T12:05:46.157Z,5228
2018-12-02T12:06:46.102Z,4776
2018-12-02T12:07:46.323Z,4528
2018-12-02T12:08:46.313Z,4580
2018-12-02T12:09:46.301Z,4748
2018-12-02T12:10:46.288Z,5024
2018-12-02T12:11:46.023Z,5008
2018-12-02T12:12:46.255Z,4960
2018-12-02T12:13:46.242Z,4824
2018-12-02T12:14:46.933Z,4360
2018-12-02T12:15:46.224Z,4096
2018-12-02T12:16:46.203Z,3592
2018-12-02T12:17:46.183Z,3468
2018-12-02T12:18:45.968Z,3308
2018-12-02T12:19:46.829Z,3164
2018-12-02T12:20:45.899Z,3300
2018-12-02T12:21:45.890Z,3488
2018-12-02T12:22:46.114Z,3256
2018-12-02T12:23:45.610Z,3752
2018-12-02T12:24:46.093Z,3860
2018-12-02T12:25:46.073Z,3908
2018-12-02T12:26:45.812Z,3840
2018-12-02T12:27:46.045Z,3896
2018-12-02T12:28:46.039Z,3744
2018-12-02T12:29:46.019Z,3740
2018-12-02T12:30:46.007Z,3604
2018-12-02T12:31:45.746Z,3340
2018-12-02T12:32:45.979Z,3068
2018-12-02T12:33:45.968Z,3044
2018-12-02T12:34:45.951Z,2964
2018-12-02T12:35:45.934Z,2848
2018-12-02T12:36:45.925Z,2892
2018-12-02T12:37:45.909Z,2836
2018-12-02T12:38:45.931Z,2744
2018-12-02T12:39:45.635Z,2764
2018-12-02T12:40:45.870Z,2652
2018-12-02T12:41:45.857Z,2524
2018-12-02T12:42:45.591Z,2460
2018-12-02T12:43:45.833Z,2448
2018-12-02T12:44:45.815Z,2516
2018-12-02T12:45:45.820Z,2564
2018-12-02T12:46:45.785Z,2608
2018-12-02T12:47:45.521Z,2616
2018-12-02T12:48:45.758Z,2524
2018-12-02T12:49:45.743Z,2420
2018-12-02T12:50:45.732Z,2308
2018-12-02T12:51:47.062Z,2248
2018-12-02T12:52:45.702Z,2212
2018-12-02T12:53:45.684Z,2208
2018-12-02T12:54:45.684Z,2248
2018-12-02T12:55:50.649Z,2304
2018-12-02T12:56:45.646Z,2400
2018-12-02T12:57:45.378Z,2464
2018-12-02T12:58:45.619Z,2484
2018-12-02T12:59:45.349Z,2516
2018-12-02T13:00:45.344Z,2528
2018-12-02T13:01:45.325Z,2468
2018-12-02T13:02:45.571Z,2364
2018-12-02T13:03:45.297Z,2280
2018-12-02T13:04:45.533Z,2188
2018-12-02T13:05:45.276Z,2080
2018-12-02T13:06:45.523Z,1976
2018-12-02T13:07:45.502Z,1920
2018-12-02T13:08:45.481Z,1912
2018-12-02T13:09:45.470Z,1968
2018-12-02T13:10:45.470Z,2032
2018-12-02T13:11:45.193Z,2044
2018-12-02T13:12:45.425Z,2004
2018-12-02T13:13:45.415Z,1936
2018-12-02T13:14:45.397Z,1864
2018-12-02T13:15:45.426Z,1776
2018-12-02T13:16:45.373Z,1684
2018-12-02T13:17:45.358Z,1576
2018-12-02T13:18:45.348Z,1464
2018-12-02T13:19:45.328Z,1352
2018-12-02T13:20:45.315Z,1252
2018-12-02T13:21:45.048Z,1176
2018-12-02T13:22:45.035Z,1096
2018-12-02T13:23:45.277Z,1012
2018-12-02T13:24:45.258Z,920
2018-12-02T13:25:45.250Z,864
2018-12-02T13:26:44.993Z,836
2018-12-02T13:27:45.214Z,804
2018-12-02T13:28:45.208Z,752
2018-12-02T13:29:45.189Z,700
2018-12-02T13:30:44.977Z,640
2018-12-02T13:31:45.186Z,584
2018-12-02T13:32:45.150Z,532
2018-12-02T13:33:45.136Z,488
2018-12-02T13:34:44.875Z,448
2018-12-02T13:35:45.106Z,408
2018-12-02T13:36:45.090Z,384
2018-12-02T13:37:45.075Z,368
2018-12-02T13:38:45.059Z,352
2018-12-02T13:39:44.799Z,356
2018-12-02T13:40:45.041Z,364
2018-12-02T13:41:44.525Z,392
2018-12-02T13:42:44.758Z,416
2018-12-02T13:43:44.741Z,452
2018-12-02T13:44:44.981Z,484
2018-12-02T13:45:44.968Z,504
2018-12-02T13:46:44.702Z,504
2018-12-02T13:47:44.940Z,500
2018-12-02T13:48:44.924Z,496
2018-12-02T13:49:44.911Z,464
2018-12-02T13:50:46.105Z,444
2018-12-02T13:51:44.878Z,440
2018-12-02T13:52:44.613Z,448
2018-12-02T13:53:44.851Z,452
2018-12-02T13:54:44.590Z,460
2018-12-02T13:55:44.818Z,460
2018-12-02T13:56:44.308Z,444
2018-12-02T13:57:44.787Z,424
2018-12-02T13:58:44.531Z,404
2018-12-02T13:59:44.266Z,400
2018-12-02T14:00:44.751Z,388
2018-12-02T14:01:44.483Z,372
2018-12-02T14:02:44.468Z,364
2018-12-02T14:03:44.204Z,352
2018-12-02T14:04:44.695Z,340
2018-12-02T14:05:44.431Z,324
2018-12-02T14:06:44.667Z,308